createdAt,value
2022-08-19T00:01:37.998Z,25.08
2022-08-19T00:04:07.641Z,24.96
2022-08-19T00:06:36.962Z,25.04
2022-08-19T00:09:06.562Z,25.00
2022-08-19T00:11:38.156Z,25.03
2022-08-19T00:14:07.096Z,25.01
2022-08-19T00:16:37.308Z,24.92
2022-08-19T00:19:04.542Z,25.10
2022-08-19T00:21:31.194Z,25.11
2022-08-19T00:24:03.818Z,25.13
2022-08-19T00:26:33.675Z,25.12
2022-08-19T00:29:03.627Z,25.14
2022-08-19T00:31:32.438Z,25.13
2022-08-19T00:33:59.385Z,25.14
2022-08-19T00:36:26.493Z,25.23
2022-08-19T00:38:54.394Z,25.24
2022-08-19T00:41:25.175Z,25.12
2022-08-19T00:44:26.731Z,25.28
2022-08-19T00:46:58.422Z,25.26
2022-08-19T00:49:53.683Z,25.27
2022-08-19T00:52:35.725Z,25.18
2022-08-19T00:55:03.985Z,25.20
2022-08-19T00:57:35.400Z,25.11
2022-08-19T01:00:04.519Z,25.04
2022-08-19T01:02:32.204Z,25.00
2022-08-19T01:05:01.301Z,24.91
2022-08-19T01:07:28.054Z,24.91
2022-08-19T01:10:02.965Z,24.88
2022-08-19T01:12:29.624Z,24.91
2022-08-19T01:14:56.770Z,24.93
2022-08-19T01:17:25.621Z,24.96
2022-08-19T01:19:52.928Z,24.97
2022-08-19T01:22:28.673Z,25.01
2022-08-19T01:24:58.286Z,25.02
2022-08-19T01:27:26.126Z,25.03
2022-08-19T01:29:52.703Z,25.03
2022-08-19T01:32:32.011Z,25.02
2022-08-19T01:35:02.694Z,25.02
2022-08-19T01:37:31.288Z,25.04
2022-08-19T01:39:58.420Z,25.08
2022-08-19T01:42:30.475Z,25.09
2022-08-19T01:44:57.765Z,25.09
2022-08-19T01:47:24.385Z,25.07
2022-08-19T01:49:51.092Z,25.10
2022-08-19T01:52:17.702Z,25.07
2022-08-19T01:54:44.537Z,24.98
2022-08-19T01:57:15.051Z,24.89
2022-08-19T01:59:43.903Z,24.80
2022-08-19T02:02:10.512Z,24.90
2022-08-19T02:04:39.008Z,24.94
2022-08-19T02:07:07.026Z,24.92
2022-08-19T02:09:33.693Z,24.93
2022-08-19T02:12:00.456Z,24.91
2022-08-19T02:14:27.044Z,24.91
2022-08-19T02:16:53.581Z,24.97
2022-08-19T02:19:20.157Z,24.94
2022-08-19T02:21:47.217Z,24.96
2022-08-19T02:24:13.771Z,24.98
2022-08-19T02:26:40.563Z,24.96
2022-08-19T02:29:07.167Z,25.00
2022-08-19T02:31:34.232Z,24.99
2022-08-19T02:34:01.715Z,25.00
2022-08-19T02:36:28.811Z,25.03
2022-08-19T02:38:58.366Z,25.02
2022-08-19T02:41:29.234Z,25.04
2022-08-19T02:44:29.716Z,25.01
2022-08-19T02:46:53.407Z,25.03
2022-08-19T02:49:21.884Z,24.98
2022-08-19T02:51:48.713Z,24.90
2022-08-19T02:54:15.945Z,24.79
2022-08-19T02:56:45.447Z,24.46
2022-08-19T02:59:13.195Z,24.46
2022-08-19T03:01:43.401Z,24.52
2022-08-19T03:04:14.651Z,24.28
2022-08-19T03:06:46.345Z,24.37
2022-08-19T03:09:15.263Z,24.24
2022-08-19T03:11:43.353Z,24.17
2022-08-19T03:14:12.468Z,24.21
2022-08-19T03:16:46.540Z,24.15
2022-08-19T03:19:14.841Z,24.15
2022-08-19T03:21:44.524Z,24.13
2022-08-19T03:24:12.621Z,23.98
2022-08-19T03:26:44.067Z,24.05
2022-08-19T03:29:11.858Z,23.97
2022-08-19T03:31:51.991Z,23.99
2022-08-19T03:34:29.651Z,23.91
2022-08-19T03:36:58.678Z,23.89
2022-08-19T03:39:26.242Z,23.88
2022-08-19T03:42:29.285Z,23.83
2022-08-19T03:44:46.670Z,23.73
2022-08-19T03:47:17.186Z,23.65
2022-08-19T03:49:44.841Z,23.58
2022-08-19T03:52:11.614Z,23.70
2022-08-19T03:54:39.823Z,23.70
2022-08-19T03:57:07.173Z,23.78
2022-08-19T03:59:38.948Z,23.67
2022-08-19T04:02:10.532Z,23.81
2022-08-19T04:04:39.350Z,23.88
2022-08-19T04:07:06.620Z,23.89
2022-08-19T04:09:35.131Z,23.94
2022-08-19T04:12:01.728Z,23.95
2022-08-19T04:14:33.063Z,23.88
2022-08-19T04:17:01.416Z,23.93
2022-08-19T04:19:30.749Z,23.86
2022-08-19T04:21:57.678Z,23.84
2022-08-19T04:24:25.058Z,23.84
2022-08-19T04:27:05.402Z,23.80
2022-08-19T04:29:44.275Z,23.74
2022-08-19T04:35:02.460Z,23.92
2022-08-19T04:37:44.278Z,23.70
2022-08-19T04:40:44.192Z,23.94
2022-08-19T04:43:18.412Z,24.00
2022-08-19T04:45:45.679Z,23.81
2022-08-19T04:48:26.718Z,23.93
2022-08-19T04:50:58.676Z,23.84
2022-08-19T04:53:34.694Z,23.97
2022-08-19T04:56:08.199Z,24.03
2022-08-19T04:58:37.364Z,23.98
2022-08-19T05:01:05.032Z,23.90
2022-08-19T05:03:34.451Z,23.83
2022-08-19T05:06:09.330Z,24.05
2022-08-19T05:08:44.043Z,24.07
2022-08-19T05:11:32.617Z,24.10
2022-08-19T05:13:59.819Z,23.97
2022-08-19T05:16:27.602Z,24.16
2022-08-19T05:19:13.911Z,24.17
2022-08-19T05:22:02.910Z,24.08
2022-08-19T05:24:30.691Z,24.28
2022-08-19T05:26:58.956Z,24.29
2022-08-19T05:29:36.125Z,24.26
2022-08-19T05:32:06.538Z,24.28
2022-08-19T05:34:36.880Z,24.25
2022-08-19T05:37:08.514Z,24.20
2022-08-19T05:39:37.692Z,24.17
2022-08-19T05:42:08.076Z,24.25
2022-08-19T05:44:39.263Z,24.24
2022-08-19T05:47:07.701Z,24.28
2022-08-19T05:49:35.621Z,24.25
2022-08-19T05:52:08.559Z,24.37
2022-08-19T05:54:39.007Z,24.37
2022-08-19T05:57:15.574Z,24.18
2022-08-19T05:59:42.944Z,24.43
2022-08-19T06:02:10.171Z,24.44
2022-08-19T06:04:36.748Z,24.50
2022-08-19T06:07:12.719Z,24.54
2022-08-19T06:09:40.723Z,24.58
2022-08-19T06:12:08.011Z,24.57
2022-08-19T06:14:41.679Z,24.59
2022-08-19T06:20:14.592Z,24.66
2022-08-19T06:22:55.112Z,24.59
2022-08-19T06:25:22.588Z,24.39
2022-08-19T06:28:13.991Z,24.51
2022-08-19T06:30:40.495Z,24.61
2022-08-19T06:33:07.053Z,24.64
2022-08-19T06:35:33.659Z,24.64
2022-08-19T06:38:03.409Z,24.66
2022-08-19T06:40:31.628Z,24.62
2022-08-19T06:43:01.814Z,24.49
2022-08-19T06:48:54.369Z,24.70
2022-08-19T06:56:43.768Z,24.70
2022-08-19T06:59:28.168Z,24.52
2022-08-19T07:02:06.540Z,24.74
2022-08-19T07:04:35.610Z,24.78
2022-08-19T07:07:20.892Z,24.75
2022-08-19T07:09:51.840Z,24.79
2022-08-19T07:12:28.135Z,24.81
2022-08-19T07:14:56.245Z,24.77
2022-08-19T07:17:24.553Z,24.82
2022-08-19T07:19:51.499Z,24.74
2022-08-19T07:22:21.705Z,24.80
2022-08-19T07:24:51.552Z,24.82
2022-08-19T07:27:24.437Z,24.81
2022-08-19T07:29:56.044Z,24.79
2022-08-19T07:32:26.870Z,24.81
2022-08-19T07:34:56.684Z,24.78
2022-08-19T07:37:27.358Z,24.80
2022-08-19T07:39:56.055Z,24.81
2022-08-19T07:42:22.623Z,24.78
2022-08-19T07:44:50.528Z,24.82
2022-08-19T07:47:49.460Z,24.83
2022-08-19T07:50:08.050Z,24.82
2022-08-19T07:52:36.986Z,24.77
2022-08-19T07:55:05.404Z,24.76
2022-08-19T07:57:32.161Z,24.71
2022-08-19T07:59:59.565Z,24.76
2022-08-19T08:02:26.119Z,24.70
2022-08-19T08:05:11.295Z,24.78
2022-08-19T08:07:56.352Z,24.77
2022-08-19T08:10:24.520Z,24.76
2022-08-19T08:13:08.793Z,24.79
2022-08-19T08:15:42.582Z,24.79
2022-08-19T08:18:10.687Z,24.84
2022-08-19T08:20:37.252Z,24.81
2022-08-19T08:23:22.479Z,24.83
2022-08-19T08:25:49.954Z,24.85
2022-08-19T08:28:18.181Z,24.89
2022-08-19T08:30:46.761Z,24.88
2022-08-19T08:35:46.680Z,24.88
2022-08-19T08:38:14.559Z,24.95
2022-08-19T08:41:07.538Z,24.94
2022-08-19T08:43:38.196Z,24.86
2022-08-19T08:46:31.488Z,24.83
2022-08-19T08:49:06.665Z,24.97
2022-08-19T08:51:38.109Z,24.95
2022-08-19T08:54:09.904Z,24.95
2022-08-19T08:56:39.724Z,24.98
2022-08-19T08:59:21.775Z,24.99
2022-08-19T09:01:48.927Z,25.01
2022-08-19T09:04:16.184Z,25.06
2022-08-19T09:07:18.492Z,25.03
2022-08-19T09:10:15.887Z,25.07
2022-08-19T09:13:09.160Z,25.19
2022-08-19T09:15:43.204Z,25.04
2022-08-19T09:18:15.326Z,25.26
2022-08-19T09:20:50.315Z,25.40
2022-08-19T09:23:16.999Z,25.41
2022-08-19T09:25:43.604Z,25.45
2022-08-19T09:28:22.663Z,25.48
2022-08-19T09:30:53.689Z,25.47
2022-08-19T09:33:20.938Z,25.41
2022-08-19T09:35:53.037Z,25.42
2022-08-19T09:38:21.111Z,25.42
2022-08-19T09:40:47.792Z,25.40
2022-08-19T09:43:14.431Z,25.38
2022-08-19T09:45:41.418Z,25.39
2022-08-19T09:48:09.606Z,25.41
2022-08-19T09:50:51.885Z,25.40
2022-08-19T09:53:19.425Z,25.34
2022-08-19T09:55:46.001Z,25.33
2022-08-19T09:58:12.844Z,25.39
2022-08-19T10:00:39.770Z,25.43
2022-08-19T10:03:07.127Z,25.44
2022-08-19T10:05:50.281Z,25.44
2022-08-19T10:08:30.034Z,25.41
2022-08-19T10:10:59.033Z,25.42
2022-08-19T10:13:29.176Z,25.45
2022-08-19T10:15:58.392Z,25.43
2022-08-19T10:18:26.326Z,25.43
2022-08-19T10:20:54.575Z,25.43
2022-08-19T10:23:22.042Z,25.46
2022-08-19T10:25:49.221Z,25.52
2022-08-19T10:28:16.169Z,25.54
2022-08-19T10:30:46.205Z,25.57
2022-08-19T10:33:13.019Z,25.56
2022-08-19T10:35:56.369Z,25.56
2022-08-19T10:38:31.805Z,25.56
2022-08-19T10:41:14.481Z,25.57
2022-08-19T10:43:41.849Z,25.57
2022-08-19T10:46:14.149Z,25.55
2022-08-19T10:48:44.264Z,25.55
2022-08-19T10:51:30.203Z,25.54
2022-08-19T10:53:57.412Z,25.57
2022-08-19T10:56:42.545Z,25.55
2022-08-19T10:59:09.138Z,25.59
2022-08-19T11:01:36.828Z,25.62
2022-08-19T11:04:06.141Z,25.64
2022-08-19T11:06:33.315Z,25.60
2022-08-19T11:09:00.928Z,25.68
2022-08-19T11:11:29.409Z,25.67
2022-08-19T11:13:56.382Z,25.63
2022-08-19T11:16:25.604Z,25.66
2022-08-19T11:18:55.135Z,25.63
2022-08-19T11:21:28.431Z,25.64
2022-08-19T11:23:58.560Z,25.61
2022-08-19T11:26:26.801Z,25.68
2022-08-19T11:28:55.431Z,25.71
2022-08-19T11:31:28.915Z,25.73
2022-08-19T11:33:58.437Z,25.75
2022-08-19T11:36:24.983Z,25.71
2022-08-19T11:38:52.219Z,25.78
2022-08-19T11:41:21.222Z,25.79
2022-08-19T11:43:48.122Z,25.80
2022-08-19T11:46:16.747Z,25.81
2022-08-19T11:48:43.663Z,25.87
2022-08-19T11:51:14.247Z,25.87
2022-08-19T11:53:41.216Z,25.91
2022-08-19T11:56:09.993Z,25.91
2022-08-19T11:58:37.114Z,25.96
2022-08-19T12:01:08.325Z,25.98
2022-08-19T12:03:35.558Z,26.04
2022-08-19T12:06:14.210Z,26.06
2022-08-19T12:08:41.982Z,26.07
2022-08-19T12:11:11.518Z,26.10
2022-08-19T12:13:39.804Z,26.09
2022-08-19T12:16:13.062Z,26.14
2022-08-19T12:18:43.936Z,26.16
2022-08-19T12:21:11.951Z,26.16
2022-08-19T12:23:38.752Z,26.14
2022-08-19T12:26:05.437Z,26.20
2022-08-19T12:28:32.056Z,26.22
2022-08-19T12:30:58.902Z,26.24
2022-08-19T12:33:28.590Z,26.24
2022-08-19T12:35:56.280Z,26.25
2022-08-19T12:38:25.645Z,26.25
2022-08-19T12:40:56.021Z,26.27
2022-08-19T12:43:25.179Z,26.30
2022-08-19T12:45:51.946Z,26.31
2022-08-19T12:48:33.507Z,26.30
2022-08-19T12:51:06.419Z,26.32
2022-08-19T12:53:32.947Z,26.34
2022-08-19T12:56:01.605Z,26.34
2022-08-19T12:58:29.889Z,26.38
2022-08-19T13:00:56.571Z,26.37
2022-08-19T13:03:28.381Z,26.41
2022-08-19T13:05:54.907Z,26.38
2022-08-19T13:08:21.406Z,26.37
2022-08-19T13:10:48.051Z,26.40
2022-08-19T13:13:14.702Z,26.38
2022-08-19T13:15:42.997Z,26.38
2022-08-19T13:18:11.464Z,26.40
2022-08-19T13:20:41.581Z,26.39
2022-08-19T13:23:09.142Z,26.41
2022-08-19T13:25:37.113Z,26.39
2022-08-19T13:28:04.931Z,26.39
2022-08-19T13:30:49.985Z,26.41
2022-08-19T13:33:16.693Z,26.40
2022-08-19T13:35:45.598Z,26.42
2022-08-19T13:38:13.620Z,26.44
2022-08-19T13:40:41.392Z,26.42
2022-08-19T13:43:17.573Z,26.43
2022-08-19T13:45:57.247Z,26.45
2022-08-19T13:48:27.306Z,26.45
2022-08-19T13:50:55.183Z,26.45
2022-08-19T13:53:21.895Z,26.47
2022-08-19T13:55:48.402Z,26.45
2022-08-19T13:58:15.509Z,26.49
2022-08-19T14:00:46.235Z,26.47
2022-08-19T14:03:13.219Z,26.48
2022-08-19T14:05:39.859Z,26.42
2022-08-19T14:08:06.898Z,26.47
2022-08-19T14:10:34.236Z,26.49
2022-08-19T14:13:04.465Z,26.48
2022-08-19T14:15:31.953Z,26.50
2022-08-19T14:17:59.347Z,26.48
2022-08-19T14:20:26.609Z,26.49
2022-08-19T14:22:53.873Z,26.46
2022-08-19T14:25:23.856Z,26.44
2022-08-19T14:27:50.726Z,26.50
2022-08-19T14:30:21.932Z,26.50
2022-08-19T14:32:48.576Z,26.46
2022-08-19T14:35:16.598Z,26.51
2022-08-19T14:37:46.141Z,26.51
2022-08-19T14:40:21.564Z,26.53
2022-08-19T14:42:49.502Z,26.48
2022-08-19T14:45:16.030Z,26.49
2022-08-19T14:47:42.792Z,26.45
2022-08-19T14:50:18.087Z,26.50
2022-08-19T14:52:48.940Z,26.52
2022-08-19T14:55:18.554Z,26.48
2022-08-19T14:57:46.158Z,26.52
2022-08-19T15:00:14.471Z,26.53
2022-08-19T15:02:42.186Z,26.52
2022-08-19T15:05:09.348Z,26.51
2022-08-19T15:07:35.876Z,26.50
2022-08-19T15:10:02.404Z,26.54
2022-08-19T15:12:29.075Z,26.48
2022-08-19T15:14:56.812Z,26.52
2022-08-19T15:17:44.993Z,26.52
2022-08-19T15:20:13.550Z,26.54
2022-08-19T15:22:40.985Z,26.50
2022-08-19T15:25:09.504Z,26.55
2022-08-19T15:27:40.516Z,26.54
2022-08-19T15:30:09.388Z,26.53
2022-08-19T15:32:37.343Z,26.55
2022-08-19T15:35:06.021Z,26.51
2022-08-19T15:37:37.448Z,26.54
2022-08-19T15:40:06.621Z,26.54
2022-08-19T15:42:33.988Z,26.53
2022-08-19T15:45:01.560Z,26.50
2022-08-19T15:47:35.302Z,26.54
2022-08-19T15:50:11.108Z,26.56
2022-08-19T15:52:39.594Z,26.55
2022-08-19T15:55:32.194Z,26.56
2022-08-19T15:58:28.384Z,26.58
2022-08-19T16:01:20.762Z,26.60
2022-08-19T16:04:11.343Z,26.59
2022-08-19T16:06:46.361Z,26.61
2022-08-19T16:09:13.204Z,26.54
2022-08-19T16:11:40.104Z,26.61
2022-08-19T16:14:09.360Z,26.66
2022-08-19T16:16:37.804Z,26.71
2022-08-19T16:19:10.527Z,26.73
2022-08-19T16:21:41.511Z,26.69
2022-08-19T16:24:10.571Z,26.73
2022-08-19T16:26:37.509Z,26.76
2022-08-19T16:29:09.120Z,26.75
2022-08-19T16:31:42.017Z,26.74
2022-08-19T16:34:08.898Z,26.76
2022-08-19T16:36:35.458Z,26.74
2022-08-19T16:39:03.555Z,26.75
2022-08-19T16:41:30.096Z,26.73
2022-08-19T16:43:56.727Z,26.74
2022-08-19T16:46:26.971Z,26.74
2022-08-19T16:48:54.491Z,26.72
2022-08-19T16:51:21.535Z,26.72
2022-08-19T16:53:49.036Z,26.73
2022-08-19T16:56:15.948Z,26.71
2022-08-19T16:58:42.667Z,26.71
2022-08-19T17:01:10.604Z,26.64
2022-08-19T17:03:39.807Z,26.69
2022-08-19T17:06:21.161Z,26.66
2022-08-19T17:08:53.141Z,26.71
2022-08-19T17:11:21.481Z,26.71
2022-08-19T17:13:49.372Z,26.67
2022-08-19T17:16:18.157Z,26.48
2022-08-19T17:18:44.946Z,26.68
2022-08-19T17:21:13.172Z,26.54
2022-08-19T17:23:43.713Z,26.64
2022-08-19T17:26:18.346Z,26.63
2022-08-19T17:28:50.592Z,26.61
2022-08-19T17:31:18.798Z,26.60
2022-08-19T17:33:46.228Z,26.63
2022-08-19T17:36:15.253Z,26.60
2022-08-19T17:38:42.344Z,26.51
2022-08-19T17:41:09.046Z,26.62
2022-08-19T17:43:42.761Z,26.58
2022-08-19T17:46:10.995Z,26.56
2022-08-19T17:48:40.800Z,26.43
2022-08-19T17:51:33.606Z,26.48
2022-08-19T17:57:18.305Z,26.40
2022-08-19T17:59:56.052Z,26.53
2022-08-19T18:03:19.812Z,26.37
2022-08-19T18:06:10.478Z,26.28
2022-08-19T18:12:26.129Z,26.45
2022-08-19T18:18:30.023Z,26.44
2022-08-19T18:27:48.236Z,26.43
2022-08-19T18:34:10.600Z,26.41
2022-08-19T18:47:22.936Z,26.34
2022-08-19T18:55:44.320Z,26.34
2022-08-19T19:04:36.371Z,26.29
2022-08-19T19:18:46.573Z,26.13
2022-08-19T19:21:14.287Z,26.27
2022-08-19T19:23:41.223Z,26.29
2022-08-19T19:26:12.774Z,26.27
2022-08-19T19:28:44.023Z,26.24
2022-08-19T19:31:13.973Z,26.23
2022-08-19T19:33:42.491Z,26.22
2022-08-19T19:36:09.261Z,26.18
2022-08-19T19:38:36.155Z,26.13
2022-08-19T19:41:03.861Z,26.14
2022-08-19T19:43:31.018Z,26.13
2022-08-19T19:46:08.311Z,26.07
2022-08-19T19:48:35.529Z,26.08
2022-08-19T19:51:04.185Z,26.02
2022-08-19T19:53:30.733Z,26.02
2022-08-19T19:55:58.887Z,26.01
2022-08-19T19:58:28.848Z,25.97
2022-08-19T20:00:56.658Z,25.99
2022-08-19T20:03:23.341Z,25.96
2022-08-19T20:05:49.938Z,25.97
2022-08-19T20:08:36.233Z,25.96
2022-08-19T20:11:05.100Z,25.94
2022-08-19T20:13:32.712Z,25.91
2022-08-19T20:15:59.391Z,25.89
2022-08-19T20:18:26.105Z,25.92
2022-08-19T20:20:52.886Z,25.87
2022-08-19T20:23:22.009Z,25.87
2022-08-19T20:25:49.982Z,25.84
2022-08-19T20:28:16.661Z,25.82
2022-08-19T20:30:46.563Z,25.82
2022-08-19T20:33:14.871Z,25.84
2022-08-19T20:35:43.763Z,25.84
2022-08-19T20:38:10.735Z,25.80
2022-08-19T20:40:37.843Z,25.82
2022-08-19T20:43:14.296Z,25.77
2022-08-19T20:45:41.222Z,25.75
2022-08-19T20:48:10.365Z,25.79
2022-08-19T20:50:38.362Z,25.78
2022-08-19T20:53:13.790Z,25.79
2022-08-19T20:55:44.426Z,25.73
2022-08-19T20:58:13.537Z,25.75
2022-08-19T21:00:40.980Z,25.72
2022-08-19T21:03:07.535Z,25.74
2022-08-19T21:05:34.053Z,25.71
2022-08-19T21:08:00.581Z,25.72
2022-08-19T21:10:27.530Z,25.63
2022-08-19T21:12:55.455Z,25.71
2022-08-19T21:15:22.156Z,25.66
2022-08-19T21:17:48.805Z,25.68
2022-08-19T21:20:15.455Z,25.64
2022-08-19T21:22:41.982Z,25.68
2022-08-19T21:25:08.860Z,25.69
2022-08-19T21:27:35.461Z,25.69
2022-08-19T21:30:02.532Z,25.70
2022-08-19T21:32:29.078Z,25.70
2022-08-19T21:34:55.780Z,25.69
2022-08-19T21:37:25.709Z,25.67
2022-08-19T21:39:54.066Z,25.67
2022-08-19T21:42:21.445Z,25.68
2022-08-19T21:44:48.185Z,25.62
2022-08-19T21:47:15.084Z,25.69
2022-08-19T21:49:41.732Z,25.64
2022-08-19T21:52:09.040Z,25.65
2022-08-19T21:54:38.260Z,25.64
2022-08-19T21:57:10.213Z,25.66
2022-08-19T21:59:37.993Z,25.65
2022-08-19T22:02:19.173Z,25.60
2022-08-19T22:04:47.602Z,25.57
2022-08-19T22:07:15.632Z,25.58
2022-08-19T22:09:43.897Z,25.56
2022-08-19T22:12:23.424Z,25.55
2022-08-19T22:14:51.865Z,25.48
2022-08-19T22:17:19.490Z,25.51
2022-08-19T22:19:46.040Z,25.49
2022-08-19T22:22:13.240Z,25.48
2022-08-19T22:24:39.799Z,25.43
2022-08-19T22:27:06.898Z,25.46
2022-08-19T22:29:36.545Z,25.48
2022-08-19T22:32:17.785Z,25.41
2022-08-19T22:34:52.260Z,25.33
2022-08-19T22:37:23.741Z,25.35
2022-08-19T22:39:50.399Z,25.33
2022-08-19T22:42:22.011Z,25.40
2022-08-19T22:44:49.652Z,25.42
2022-08-19T22:47:16.646Z,25.44
2022-08-19T22:49:44.282Z,25.46
2022-08-19T22:52:20.587Z,25.45
2022-08-19T22:54:52.427Z,25.43
2022-08-19T22:57:20.669Z,25.43
2022-08-19T22:59:52.210Z,25.44
2022-08-19T23:02:21.506Z,25.41
2022-08-19T23:04:48.059Z,25.43
2022-08-19T23:07:14.650Z,25.40
2022-08-19T23:09:41.249Z,25.40
2022-08-19T23:12:09.865Z,25.35
2022-08-19T23:14:37.432Z,25.36
2022-08-19T23:17:05.253Z,25.40
2022-08-19T23:19:32.538Z,25.36
2022-08-19T23:21:59.495Z,25.37
2022-08-19T23:24:26.521Z,25.34
2022-08-19T23:27:12.231Z,25.34
2022-08-19T23:29:59.248Z,25.31
2022-08-19T23:32:25.877Z,25.27
2022-08-19T23:34:56.143Z,25.32
2022-08-19T23:37:23.523Z,25.34
2022-08-19T23:39:50.842Z,25.34
2022-08-19T23:42:17.517Z,25.39
2022-08-19T23:44:52.319Z,25.38
2022-08-19T23:47:24.089Z,25.38
2022-08-19T23:49:52.503Z,25.40
2022-08-19T23:52:19.752Z,25.34
2022-08-19T23:54:47.344Z,25.35
2022-08-19T23:57:14.622Z,25.36
2022-08-19T23:59:42.475Z,25.35
